createdAt,value
2023-03-02T00:00:47.032Z,1.65
2023-03-02T00:03:18.734Z,1.73
2023-03-02T00:05:47.220Z,2.22
2023-03-02T00:08:17.449Z,1.65
2023-03-02T00:10:44.627Z,1.85
2023-03-02T00:13:13.972Z,1.90
2023-03-02T00:15:40.739Z,1.88
2023-03-02T00:18:07.463Z,1.88
2023-03-02T00:20:35.973Z,1.92
2023-03-02T00:23:02.840Z,1.95
2023-03-02T00:25:32.186Z,1.30
2023-03-02T00:27:59.007Z,1.63
2023-03-02T00:30:25.852Z,1.67
2023-03-02T00:32:52.661Z,1.63
2023-03-02T00:35:19.518Z,1.75
2023-03-02T00:37:46.350Z,2.10
2023-03-02T00:40:13.334Z,1.50
2023-03-02T00:42:40.160Z,1.58
2023-03-02T00:45:07.458Z,1.40
2023-03-02T00:47:35.664Z,2.00
2023-03-02T00:50:03.298Z,1.67
2023-03-02T00:52:31.340Z,1.60
2023-03-02T00:54:58.338Z,1.00
2023-03-02T00:57:25.365Z,1.80
2023-03-02T00:59:52.155Z,1.50
2023-03-02T01:02:21.556Z,1.30
2023-03-02T01:04:48.900Z,1.67
2023-03-02T01:07:18.339Z,1.45
2023-03-02T01:09:45.761Z,1.30
2023-03-02T01:12:12.824Z,1.30
2023-03-02T01:14:41.922Z,1.77
2023-03-02T01:17:10.288Z,1.33
2023-03-02T01:19:37.131Z,1.98
2023-03-02T01:22:04.133Z,1.45
2023-03-02T01:24:31.149Z,1.52
2023-03-02T01:26:58.326Z,1.50
2023-03-02T01:29:25.142Z,1.40
2023-03-02T01:31:52.116Z,1.80
2023-03-02T01:34:19.029Z,1.25
2023-03-02T01:36:46.204Z,1.60
2023-03-02T01:39:16.151Z,1.35
2023-03-02T01:41:44.171Z,1.13
2023-03-02T01:44:38.596Z,1.40
2023-03-02T01:47:15.004Z,0.95
2023-03-02T01:49:47.059Z,1.48
2023-03-02T01:52:15.637Z,1.70
2023-03-02T01:54:43.753Z,1.30
2023-03-02T01:57:11.577Z,1.55
2023-03-02T01:59:41.397Z,1.50
2023-03-02T02:02:11.548Z,1.45
2023-03-02T02:04:42.808Z,1.30
2023-03-02T02:07:10.041Z,1.55
2023-03-02T02:09:45.343Z,1.30
2023-03-02T02:12:17.085Z,1.10
2023-03-02T02:17:12.252Z,0.85
2023-03-02T02:20:01.651Z,1.33
2023-03-02T02:22:35.332Z,1.27
2023-03-02T02:25:06.292Z,1.20
2023-03-02T02:27:34.107Z,1.38
2023-03-02T02:30:04.663Z,1.10
2023-03-02T02:35:12.618Z,1.35
2023-03-02T02:37:41.451Z,1.40
2023-03-02T02:40:15.950Z,1.50
2023-03-02T02:42:46.374Z,1.23
2023-03-02T02:45:24.305Z,1.73
2023-03-02T02:47:52.774Z,1.40
2023-03-02T02:50:26.823Z,1.17
2023-03-02T02:53:17.317Z,1.35
2023-03-02T02:55:46.935Z,1.20
2023-03-02T02:58:22.806Z,1.38
2023-03-02T03:00:49.584Z,1.60
2023-03-02T03:03:33.295Z,1.55
2023-03-02T03:06:04.496Z,1.42
2023-03-02T03:08:46.462Z,1.20
2023-03-02T03:13:43.668Z,1.20
2023-03-02T03:16:15.580Z,1.10
2023-03-02T03:18:45.271Z,1.50
2023-03-02T03:21:12.014Z,1.70
2023-03-02T03:23:38.852Z,1.25
2023-03-02T03:26:06.235Z,1.88
2023-03-02T03:28:33.984Z,1.02
2023-03-02T03:31:00.922Z,1.63
2023-03-02T03:33:28.630Z,1.38
2023-03-02T03:35:55.406Z,1.25
2023-03-02T03:38:22.286Z,1.50
2023-03-02T03:40:49.014Z,1.17
2023-03-02T03:43:16.389Z,1.08
2023-03-02T03:45:43.326Z,1.63
2023-03-02T03:48:10.071Z,1.73
2023-03-02T03:50:36.918Z,1.73
2023-03-02T03:53:04.019Z,1.73
2023-03-02T03:55:31.235Z,1.60
2023-03-02T03:57:58.027Z,1.50
2023-03-02T04:00:25.191Z,1.98
2023-03-02T04:02:52.280Z,1.58
2023-03-02T04:05:19.162Z,1.73
2023-03-02T04:07:45.988Z,1.83
2023-03-02T04:10:13.192Z,1.17
2023-03-02T04:12:42.087Z,1.85
2023-03-02T04:15:13.158Z,1.80
2023-03-02T04:17:39.959Z,1.60
2023-03-02T04:20:10.546Z,1.83
2023-03-02T04:22:37.389Z,1.67
2023-03-02T04:25:05.229Z,1.95
2023-03-02T04:27:32.117Z,2.05
2023-03-02T04:29:58.853Z,1.33
2023-03-02T04:32:25.709Z,1.77
2023-03-02T04:34:52.487Z,2.15
2023-03-02T04:37:19.300Z,1.70
2023-03-02T04:39:50.186Z,1.60
2023-03-02T04:42:19.158Z,1.90
2023-03-02T04:44:45.960Z,1.77
2023-03-02T04:47:12.837Z,1.90
2023-03-02T04:49:39.938Z,2.00
2023-03-02T04:52:06.997Z,2.13
2023-03-02T04:54:34.023Z,2.25
2023-03-02T04:57:00.795Z,2.00
2023-03-02T04:59:29.012Z,2.03
2023-03-02T05:01:58.545Z,1.92
2023-03-02T05:04:26.250Z,1.90
2023-03-02T05:06:53.001Z,1.70
2023-03-02T05:09:19.855Z,1.20
2023-03-02T05:11:46.908Z,1.77
2023-03-02T05:14:13.762Z,1.75
2023-03-02T05:16:41.738Z,1.35
2023-03-02T05:19:11.408Z,1.60
2023-03-02T05:21:38.317Z,2.20
2023-03-02T05:24:05.575Z,1.42
2023-03-02T05:26:32.867Z,1.90
2023-03-02T05:28:59.860Z,2.05
2023-03-02T05:31:35.059Z,1.80
2023-03-02T05:34:04.366Z,1.92
2023-03-02T05:36:31.138Z,1.75
2023-03-02T05:38:58.327Z,2.05
2023-03-02T05:41:25.278Z,1.45
2023-03-02T05:43:52.215Z,3.53
2023-03-02T05:46:21.603Z,1.90
2023-03-02T05:48:49.063Z,2.28
2023-03-02T05:51:15.919Z,1.35
2023-03-02T05:53:42.786Z,2.10
2023-03-02T05:56:10.176Z,1.90
2023-03-02T05:58:37.011Z,1.73
2023-03-02T06:01:09.213Z,1.90
2023-03-02T06:03:36.070Z,1.95
2023-03-02T06:06:02.907Z,1.75
2023-03-02T06:08:29.670Z,2.50
2023-03-02T06:10:57.174Z,2.00
2023-03-02T06:13:24.057Z,2.20
2023-03-02T06:15:50.805Z,1.80
2023-03-02T06:18:17.671Z,1.95
2023-03-02T06:20:44.507Z,1.83
2023-03-02T06:23:12.042Z,2.63
2023-03-02T06:25:41.354Z,2.08
2023-03-02T06:28:08.213Z,2.20
2023-03-02T06:30:35.131Z,2.63
2023-03-02T06:33:02.055Z,1.75
2023-03-02T06:35:29.244Z,2.38
2023-03-02T06:37:56.232Z,2.30
2023-03-02T06:40:22.985Z,2.05
2023-03-02T06:42:49.827Z,2.22
2023-03-02T06:45:16.748Z,1.95
2023-03-02T06:47:43.673Z,2.13
2023-03-02T06:50:11.099Z,2.00
2023-03-02T06:52:37.991Z,2.30
2023-03-02T06:55:05.302Z,2.28
2023-03-02T06:57:34.266Z,2.03
2023-03-02T07:00:03.523Z,1.88
2023-03-02T07:02:30.940Z,2.63
2023-03-02T07:04:57.835Z,2.75
2023-03-02T07:07:24.555Z,2.30
2023-03-02T07:09:51.392Z,1.95
2023-03-02T07:12:19.010Z,2.05
2023-03-02T07:14:45.750Z,1.95
2023-03-02T07:17:12.478Z,1.60
2023-03-02T07:19:40.884Z,1.90
2023-03-02T07:22:07.863Z,1.70
2023-03-02T07:24:34.767Z,1.67
2023-03-02T07:27:01.633Z,2.08
2023-03-02T07:29:28.511Z,1.88
2023-03-02T07:32:04.004Z,1.50
2023-03-02T07:34:30.850Z,1.70
2023-03-02T07:36:57.950Z,1.80
2023-03-02T07:39:24.703Z,1.60
2023-03-02T07:41:51.477Z,1.40
2023-03-02T07:44:18.163Z,1.70
2023-03-02T07:46:45.112Z,1.80
2023-03-02T07:49:11.924Z,1.70
2023-03-02T07:51:38.832Z,1.60
2023-03-02T07:54:05.638Z,1.95
2023-03-02T07:56:32.585Z,2.05
2023-03-02T07:58:59.448Z,2.20
2023-03-02T08:01:26.315Z,1.83
2023-03-02T08:03:53.293Z,1.60
2023-03-02T08:06:20.204Z,1.70
2023-03-02T08:08:47.148Z,1.50
2023-03-02T08:11:16.763Z,1.60
2023-03-02T08:13:43.989Z,1.50
2023-03-02T08:16:12.933Z,2.53
2023-03-02T08:18:40.843Z,1.58
2023-03-02T08:21:34.201Z,2.15
2023-03-02T08:24:01.221Z,1.70
2023-03-02T08:26:28.172Z,1.60
2023-03-02T08:28:54.969Z,1.90
2023-03-02T08:31:21.818Z,1.33
2023-03-02T08:33:48.592Z,1.80
2023-03-02T08:36:18.387Z,1.70
2023-03-02T08:38:45.673Z,1.58
2023-03-02T08:41:21.214Z,1.17
2023-03-02T08:43:48.722Z,2.15
2023-03-02T08:46:18.660Z,1.45
2023-03-02T08:48:46.810Z,1.70
2023-03-02T08:51:17.067Z,1.30
2023-03-02T08:53:46.993Z,1.10
2023-03-02T08:56:21.708Z,1.60
2023-03-02T08:58:49.473Z,1.80
2023-03-02T09:01:22.701Z,1.80
2023-03-02T09:03:49.636Z,1.80
2023-03-02T09:06:16.903Z,1.67
2023-03-02T09:08:44.574Z,1.88
2023-03-02T09:11:11.414Z,1.77
2023-03-02T09:13:38.688Z,1.58
2023-03-02T09:16:06.358Z,2.17
2023-03-02T09:18:34.171Z,1.83
2023-03-02T09:21:01.026Z,1.33
2023-03-02T09:23:28.747Z,1.73
2023-03-02T09:25:55.718Z,2.08
2023-03-02T09:28:23.293Z,1.50
2023-03-02T09:30:54.854Z,1.60
2023-03-02T09:33:21.949Z,1.58
2023-03-02T09:35:49.470Z,2.10
2023-03-02T09:38:18.257Z,1.75
2023-03-02T09:41:09.966Z,1.52
2023-03-02T09:44:08.758Z,1.88
2023-03-02T09:46:47.131Z,1.55
2023-03-02T09:49:32.160Z,1.63
2023-03-02T09:52:04.928Z,1.48
2023-03-02T09:54:32.403Z,1.48
2023-03-02T09:56:59.965Z,1.42
2023-03-02T09:59:33.223Z,1.63
2023-03-02T10:02:06.296Z,1.17
2023-03-02T10:04:41.252Z,1.48
2023-03-02T10:07:27.444Z,1.88
2023-03-02T10:09:56.052Z,1.45
2023-03-02T10:12:25.677Z,1.77
2023-03-02T10:15:14.591Z,1.52
2023-03-02T10:17:54.264Z,1.48
2023-03-02T10:20:48.384Z,1.40
2023-03-02T10:23:17.959Z,1.05
2023-03-02T10:25:53.094Z,1.85
2023-03-02T10:28:22.048Z,1.10
2023-03-02T10:30:59.516Z,1.60
2023-03-02T10:33:27.664Z,1.52
2023-03-02T10:35:54.571Z,1.50
2023-03-02T10:38:25.324Z,1.52
2023-03-02T10:41:00.176Z,1.88
2023-03-02T10:43:32.052Z,1.85
2023-03-02T10:46:02.014Z,1.90
2023-03-02T10:48:28.971Z,1.75
2023-03-02T10:50:58.455Z,1.73
2023-03-02T10:53:25.328Z,1.90
2023-03-02T10:55:53.777Z,1.77
2023-03-02T10:58:33.375Z,1.80
2023-03-02T11:01:01.887Z,1.40
2023-03-02T11:03:30.131Z,1.73
2023-03-02T11:05:58.165Z,1.75
2023-03-02T11:08:28.062Z,1.70
2023-03-02T11:11:00.890Z,1.85
2023-03-02T11:13:47.163Z,1.90
2023-03-02T11:16:19.759Z,1.67
2023-03-02T11:19:08.528Z,1.70
2023-03-02T11:21:41.628Z,1.70
2023-03-02T11:24:17.016Z,1.60
2023-03-02T11:27:15.537Z,1.80
2023-03-02T11:29:50.776Z,1.80
2023-03-02T11:32:42.762Z,1.70
2023-03-02T11:37:55.682Z,1.40
2023-03-02T11:40:26.481Z,1.80
2023-03-02T11:42:56.786Z,1.75
2023-03-02T11:45:30.429Z,1.98
2023-03-02T11:48:04.255Z,1.85
2023-03-02T11:50:34.640Z,2.00
2023-03-02T11:53:06.563Z,1.70
2023-03-02T11:55:45.804Z,1.83
2023-03-02T11:58:21.851Z,1.70
2023-03-02T12:00:49.551Z,1.92
2023-03-02T12:03:16.264Z,1.98
2023-03-02T12:06:07.533Z,1.85
2023-03-02T12:08:44.763Z,2.35
2023-03-02T12:11:17.309Z,2.08
2023-03-02T12:14:00.441Z,2.35
2023-03-02T12:16:36.707Z,2.03
2023-03-02T12:19:39.836Z,2.15
2023-03-02T12:22:12.418Z,2.20
2023-03-02T12:24:42.638Z,2.55
2023-03-02T12:27:15.398Z,1.90
2023-03-02T12:29:45.114Z,2.40
2023-03-02T12:32:19.842Z,2.40
2023-03-02T12:35:01.299Z,1.65
2023-03-02T12:37:37.379Z,2.00
2023-03-02T12:40:33.531Z,1.92
2023-03-02T12:43:38.411Z,2.28
2023-03-02T12:46:10.950Z,1.63
2023-03-02T12:48:50.173Z,1.73
2023-03-02T12:51:23.623Z,1.90
2023-03-02T12:54:02.557Z,1.80
2023-03-02T12:56:29.428Z,1.65
2023-03-02T12:58:56.267Z,1.73
2023-03-02T13:01:28.985Z,2.25
2023-03-02T13:03:56.589Z,1.90
2023-03-02T13:06:26.907Z,1.92
2023-03-02T13:08:57.135Z,1.80
2023-03-02T13:11:32.129Z,2.10
2023-03-02T13:14:17.218Z,2.05
2023-03-02T13:16:57.884Z,1.70
2023-03-02T13:19:26.023Z,2.00
2023-03-02T13:21:53.272Z,1.67
2023-03-02T13:24:50.990Z,1.30
2023-03-02T13:27:22.138Z,2.38
2023-03-02T13:29:49.507Z,1.65
2023-03-02T13:32:35.897Z,1.83
2023-03-02T13:35:03.437Z,1.15
2023-03-02T13:37:43.536Z,1.73
2023-03-02T13:40:22.538Z,1.40
2023-03-02T13:42:49.349Z,1.65
2023-03-02T13:45:25.837Z,1.90
2023-03-02T13:47:54.518Z,1.88
2023-03-02T13:50:30.046Z,1.80
2023-03-02T13:53:01.187Z,1.40
2023-03-02T13:55:28.823Z,1.63
2023-03-02T13:57:56.313Z,1.60
2023-03-02T14:00:29.677Z,1.65
2023-03-02T14:02:56.506Z,1.40
2023-03-02T14:05:33.095Z,1.73
2023-03-02T14:08:00.648Z,1.85
2023-03-02T14:10:27.598Z,1.40
2023-03-02T14:13:01.691Z,1.70
2023-03-02T14:15:28.510Z,1.80
2023-03-02T14:17:55.342Z,1.50
2023-03-02T14:20:22.161Z,1.35
2023-03-02T14:22:49.040Z,1.73
2023-03-02T14:25:16.030Z,1.85
2023-03-02T14:27:43.977Z,1.75
2023-03-02T14:30:18.111Z,1.50
2023-03-02T14:32:45.275Z,1.80
2023-03-02T14:35:13.661Z,1.50
2023-03-02T14:37:47.064Z,1.70
2023-03-02T14:40:28.341Z,1.20
2023-03-02T14:42:55.293Z,1.17
2023-03-02T14:45:23.089Z,1.52
2023-03-02T14:47:49.955Z,1.42
2023-03-02T14:50:17.382Z,1.90
2023-03-02T14:52:54.922Z,1.50
2023-03-02T14:55:32.723Z,1.42
2023-03-02T14:58:03.319Z,1.40
2023-03-02T15:00:30.432Z,1.67
2023-03-02T15:02:59.266Z,1.13
2023-03-02T15:05:26.273Z,1.05
2023-03-02T15:07:53.847Z,1.10
2023-03-02T15:10:23.169Z,1.60
2023-03-02T15:12:50.800Z,1.40
2023-03-02T15:15:17.627Z,1.13
2023-03-02T15:17:44.545Z,1.30
2023-03-02T15:20:15.465Z,1.63
2023-03-02T15:22:42.392Z,1.30
2023-03-02T15:25:09.664Z,1.50
2023-03-02T15:27:37.746Z,2.10
2023-03-02T15:30:05.366Z,2.03
2023-03-02T15:32:32.204Z,2.03
2023-03-02T15:34:58.979Z,1.55
2023-03-02T15:37:25.826Z,1.60
2023-03-02T15:39:56.592Z,1.52
2023-03-02T15:42:23.982Z,1.60
2023-03-02T15:44:50.891Z,1.55
2023-03-02T15:47:17.712Z,1.48
2023-03-02T15:49:44.512Z,1.42
2023-03-02T15:52:12.225Z,1.35
2023-03-02T15:54:39.132Z,1.75
2023-03-02T15:57:05.951Z,1.63
2023-03-02T15:59:32.953Z,1.50
2023-03-02T16:02:02.227Z,1.63
2023-03-02T16:04:31.020Z,1.17
2023-03-02T16:06:58.129Z,1.50
2023-03-02T16:09:26.536Z,1.42
2023-03-02T16:11:53.377Z,1.60
2023-03-02T16:14:20.308Z,1.40
2023-03-02T16:16:47.466Z,1.30
2023-03-02T16:19:18.953Z,1.67
2023-03-02T16:21:47.132Z,1.40
2023-03-02T16:24:16.179Z,1.80
2023-03-02T16:26:43.334Z,1.67
2023-03-02T16:29:12.018Z,1.50
2023-03-02T16:31:39.741Z,1.48
2023-03-02T16:34:08.893Z,1.70
2023-03-02T16:36:40.472Z,2.17
2023-03-02T16:39:09.452Z,1.52
2023-03-02T16:41:37.090Z,1.65
2023-03-02T16:44:04.780Z,1.88
2023-03-02T16:46:36.373Z,1.40
2023-03-02T16:49:04.776Z,1.60
2023-03-02T16:51:32.169Z,1.50
2023-03-02T16:53:58.932Z,1.70
2023-03-02T16:56:25.837Z,1.67
2023-03-02T16:58:52.720Z,2.47
2023-03-02T17:01:22.410Z,1.70
2023-03-02T17:03:50.726Z,1.65
2023-03-02T17:06:20.725Z,2.08
2023-03-02T17:08:47.864Z,1.70
2023-03-02T17:11:15.204Z,1.80
2023-03-02T17:13:42.261Z,2.03
2023-03-02T17:16:09.280Z,1.80
2023-03-02T17:18:36.125Z,1.67
2023-03-02T17:21:04.101Z,1.75
2023-03-02T17:23:31.564Z,1.77
2023-03-02T17:25:58.456Z,1.65
2023-03-02T17:28:25.536Z,1.92
2023-03-02T17:30:52.477Z,2.30
2023-03-02T17:33:19.351Z,1.73
2023-03-02T17:35:46.553Z,1.75
2023-03-02T17:38:14.578Z,1.60
2023-03-02T17:40:42.542Z,1.90
2023-03-02T17:43:09.850Z,1.73
2023-03-02T17:45:36.690Z,1.88
2023-03-02T17:48:03.586Z,1.95
2023-03-02T17:50:31.893Z,2.08
2023-03-02T17:52:59.852Z,1.77
2023-03-02T17:55:26.861Z,2.20
2023-03-02T17:57:53.886Z,2.17
2023-03-02T18:00:23.137Z,1.88
2023-03-02T18:02:50.793Z,1.90
2023-03-02T18:05:17.824Z,1.80
2023-03-02T18:07:44.651Z,2.05
2023-03-02T18:10:12.496Z,2.20
2023-03-02T18:12:40.201Z,2.15
2023-03-02T18:15:08.072Z,1.77
2023-03-02T18:17:34.884Z,2.00
2023-03-02T18:20:01.773Z,2.25
2023-03-02T18:22:28.882Z,2.00
2023-03-02T18:24:55.865Z,1.85
2023-03-02T18:27:22.719Z,2.20
2023-03-02T18:29:49.692Z,2.20
2023-03-02T18:32:16.974Z,2.38
2023-03-02T18:34:45.646Z,2.50
2023-03-02T18:37:13.055Z,2.50
2023-03-02T18:39:39.782Z,2.63
2023-03-02T18:42:07.719Z,2.13
2023-03-02T18:44:35.443Z,1.92
2023-03-02T18:47:02.512Z,2.33
2023-03-02T18:49:30.992Z,2.40
2023-03-02T18:51:58.671Z,2.47
2023-03-02T18:54:25.524Z,2.50
2023-03-02T18:56:52.755Z,2.40
2023-03-02T18:59:19.829Z,2.33
2023-03-02T19:01:47.271Z,2.47
2023-03-02T19:04:15.276Z,2.40
2023-03-02T19:06:43.118Z,2.90
2023-03-02T19:09:10.301Z,2.50
2023-03-02T19:11:37.398Z,2.95
2023-03-02T19:14:04.593Z,2.33
2023-03-02T19:16:32.428Z,2.40
2023-03-02T19:18:59.542Z,2.30
2023-03-02T19:21:26.732Z,2.90
2023-03-02T19:23:53.760Z,2.40
2023-03-02T19:26:20.651Z,2.33
2023-03-02T19:28:47.574Z,2.47
2023-03-02T19:31:14.582Z,2.47
2023-03-02T19:33:42.411Z,3.20
2023-03-02T19:36:09.848Z,2.70
2023-03-02T19:38:40.631Z,2.40
2023-03-02T19:41:10.611Z,2.58
2023-03-02T19:43:37.519Z,2.50
2023-03-02T19:46:05.320Z,2.42
2023-03-02T19:48:34.035Z,2.40
2023-03-02T19:51:00.833Z,2.50
2023-03-02T19:53:27.723Z,2.80
2023-03-02T19:56:00.425Z,2.20
2023-03-02T19:58:28.517Z,2.15
2023-03-02T20:00:55.507Z,2.88
2023-03-02T20:03:22.421Z,2.63
2023-03-02T20:05:49.549Z,2.30
2023-03-02T20:08:16.973Z,2.70
2023-03-02T20:10:46.498Z,2.83
2023-03-02T20:13:13.333Z,2.30
2023-03-02T20:15:44.220Z,2.13
2023-03-02T20:18:15.155Z,2.10
2023-03-02T20:20:42.869Z,2.30
2023-03-02T20:23:09.853Z,2.40
2023-03-02T20:25:36.791Z,3.13
2023-03-02T20:28:05.829Z,2.60
2023-03-02T20:30:36.829Z,2.50
2023-03-02T20:33:06.703Z,2.55
2023-03-02T20:35:37.765Z,2.50
2023-03-02T20:38:06.228Z,2.22
2023-03-02T20:40:34.035Z,2.30
2023-03-02T20:43:01.218Z,2.40
2023-03-02T20:45:28.611Z,2.60
2023-03-02T20:47:56.904Z,2.42
2023-03-02T20:50:28.290Z,2.60
2023-03-02T20:52:55.119Z,2.22
2023-03-02T20:55:21.991Z,2.00
2023-03-02T20:57:49.034Z,2.45
2023-03-02T21:00:23.255Z,2.60
2023-03-02T21:02:50.104Z,2.10
2023-03-02T21:05:18.618Z,2.10
2023-03-02T21:07:46.393Z,2.20
2023-03-02T21:10:17.125Z,2.15
2023-03-02T21:12:45.761Z,1.95
2023-03-02T21:15:13.340Z,2.40
2023-03-02T21:17:40.266Z,2.20
2023-03-02T21:20:07.907Z,2.40
2023-03-02T21:22:34.767Z,2.20
2023-03-02T21:25:01.689Z,2.08
2023-03-02T21:27:29.089Z,2.10
2023-03-02T21:29:56.464Z,2.00
2023-03-02T21:32:23.452Z,2.25
2023-03-02T21:34:50.231Z,2.22
2023-03-02T21:37:17.119Z,2.08
2023-03-02T21:39:43.998Z,1.73
2023-03-02T21:42:12.171Z,1.88
2023-03-02T21:44:39.094Z,2.03
2023-03-02T21:47:05.915Z,1.73
2023-03-02T21:49:32.752Z,1.45
2023-03-02T21:51:59.652Z,1.70
2023-03-02T21:54:26.358Z,2.00
2023-03-02T21:56:53.100Z,1.98
2023-03-02T21:59:19.920Z,1.85
2023-03-02T22:01:46.769Z,1.70
2023-03-02T22:04:14.117Z,1.80
2023-03-02T22:06:40.912Z,2.47
2023-03-02T22:09:07.733Z,1.90
2023-03-02T22:11:36.808Z,1.83
2023-03-02T22:14:15.280Z,1.77
2023-03-02T22:16:45.154Z,2.10
2023-03-02T22:19:25.565Z,2.05
2023-03-02T22:21:56.516Z,2.30
2023-03-02T22:24:31.503Z,2.63
2023-03-02T22:27:08.583Z,2.47
2023-03-02T22:29:42.628Z,2.53
2023-03-02T22:32:25.644Z,2.15
2023-03-02T22:34:57.642Z,2.40
2023-03-02T22:37:37.358Z,2.50
2023-03-02T22:40:34.209Z,2.40
2023-03-02T22:43:12.110Z,2.70
2023-03-02T22:45:41.906Z,2.38
2023-03-02T22:48:15.335Z,2.85
2023-03-02T22:50:44.702Z,2.05
2023-03-02T22:53:30.221Z,1.95
2023-03-02T22:56:02.894Z,2.15
2023-03-02T22:58:45.019Z,2.20
2023-03-02T23:03:47.336Z,2.20
2023-03-02T23:06:26.966Z,2.10
2023-03-02T23:08:57.036Z,1.95
2023-03-02T23:11:25.002Z,1.98
2023-03-02T23:13:53.347Z,2.00
2023-03-02T23:16:27.922Z,2.03
2023-03-02T23:18:59.222Z,1.92
2023-03-02T23:21:34.197Z,1.60
2023-03-02T23:24:02.521Z,1.75
2023-03-02T23:26:29.350Z,1.88
2023-03-02T23:28:56.235Z,2.10
2023-03-02T23:31:22.993Z,1.58
2023-03-02T23:33:49.861Z,1.80
2023-03-02T23:36:16.639Z,1.58
2023-03-02T23:38:43.417Z,1.85
2023-03-02T23:41:10.212Z,1.30
2023-03-02T23:43:37.065Z,1.45
2023-03-02T23:46:04.088Z,1.98
2023-03-02T23:48:30.905Z,1.52
2023-03-02T23:50:57.991Z,1.85
2023-03-02T23:53:24.708Z,1.95
2023-03-02T23:55:53.726Z,1.65
2023-03-02T23:58:21.248Z,2.03
